sensor_id;sensor_type;location;lat;lon;timestamp;pressure;altitude;pressure_sealevel;temperature
50206;BMP280;36098;48.390;10.856;2022-11-13T00:01:51;97107.59;;;22.40
50206;BMP280;36098;48.390;10.856;2022-11-13T00:04:16;97107.84;;;22.38
50206;BMP280;36098;48.390;10.856;2022-11-13T00:06:42;97100.13;;;22.37
50206;BMP280;36098;48.390;10.856;2022-11-13T00:09:10;97098.53;;;22.36
50206;BMP280;36098;48.390;10.856;2022-11-13T00:11:36;97093.22;;;22.31
50206;BMP280;36098;48.390;10.856;2022-11-13T00:14:01;97093.53;;;22.34
50206;BMP280;36098;48.390;10.856;2022-11-13T00:16:26;97086.69;;;22.33
50206;BMP280;36098;48.390;10.856;2022-11-13T00:18:52;97081.91;;;22.30
50206;BMP280;36098;48.390;10.856;2022-11-13T00:21:20;97085.56;;;22.29
50206;BMP280;36098;48.390;10.856;2022-11-13T00:23:47;97079.50;;;22.29
50206;BMP280;36098;48.390;10.856;2022-11-13T00:26:15;97074.22;;;22.29
50206;BMP280;36098;48.390;10.856;2022-11-13T00:28:40;97077.91;;;22.28
50206;BMP280;36098;48.390;10.856;2022-11-13T00:31:07;97076.31;;;22.27
50206;BMP280;36098;48.390;10.856;2022-11-13T00:33:33;97070.00;;;22.28
50206;BMP280;36098;48.390;10.856;2022-11-13T00:36:11;97076.31;;;22.27
50206;BMP280;36098;48.390;10.856;2022-11-13T00:38:38;97067.59;;;22.26
50206;BMP280;36098;48.390;10.856;2022-11-13T00:41:03;97068.09;;;22.23
50206;BMP280;36098;48.390;10.856;2022-11-13T00:43:29;97063.09;;;22.22
50206;BMP280;36098;48.390;10.856;2022-11-13T00:45:54;97065.94;;;22.20
50206;BMP280;36098;48.390;10.856;2022-11-13T00:48:20;97063.81;;;22.17
50206;BMP280;36098;48.390;10.856;2022-11-13T00:50:45;97060.34;;;22.17
50206;BMP280;36098;48.390;10.856;2022-11-13T00:53:11;97056.69;;;22.18
50206;BMP280;36098;48.390;10.856;2022-11-13T00:55:36;97056.38;;;22.14
50206;BMP280;36098;48.390;10.856;2022-11-13T00:58:02;97050.88;;;22.16
50206;BMP280;36098;48.390;10.856;2022-11-13T01:00:29;97054.78;;;22.13
50206;BMP280;36098;48.390;10.856;2022-11-13T01:02:54;97046.09;;;22.13
50206;BMP280;36098;48.390;10.856;2022-11-13T01:05:21;97042.69;;;22.12
50206;BMP280;36098;48.390;10.856;2022-11-13T01:07:46;97041.09;;;22.11
50206;BMP280;36098;48.390;10.856;2022-11-13T01:10:12;97042.91;;;22.11
50206;BMP280;36098;48.390;10.856;2022-11-13T01:12:37;97041.31;;;22.10
50206;BMP280;36098;48.390;10.856;2022-11-13T01:15:02;97030.78;;;22.10
50206;BMP280;36098;48.390;10.856;2022-11-13T01:17:28;97035.50;;;22.08
50206;BMP280;36098;48.390;10.856;2022-11-13T01:19:53;97034.47;;;22.09
50206;BMP280;36098;48.390;10.856;2022-11-13T01:22:19;97029.19;;;22.09
50206;BMP280;36098;48.390;10.856;2022-11-13T01:24:44;97022.13;;;22.09
50206;BMP280;36098;48.390;10.856;2022-11-13T01:27:09;97021.78;;;22.06
50206;BMP280;36098;48.390;10.856;2022-11-13T01:29:37;97018.34;;;22.05
50206;BMP280;36098;48.390;10.856;2022-11-13T01:32:02;97029.13;;;22.04
50206;BMP280;36098;48.390;10.856;2022-11-13T01:34:28;97010.94;;;22.02
50206;BMP280;36098;48.390;10.856;2022-11-13T01:36:53;97007.53;;;22.02
50206;BMP280;36098;48.390;10.856;2022-11-13T01:39:18;97013.84;;;22.01
50206;BMP280;36098;48.390;10.856;2022-11-13T01:41:43;97000.03;;;21.94
50206;BMP280;36098;48.390;10.856;2022-11-13T01:44:14;96996.69;;;21.98
50206;BMP280;36098;48.390;10.856;2022-11-13T01:46:41;96996.13;;;21.96
50206;BMP280;36098;48.390;10.856;2022-11-13T01:49:13;96991.66;;;21.97
50206;BMP280;36098;48.390;10.856;2022-11-13T01:51:48;96984.81;;;21.96
50206;BMP280;36098;48.390;10.856;2022-11-13T01:54:25;96985.28;;;21.93
50206;BMP280;36098;48.390;10.856;2022-11-13T01:56:51;96989.50;;;21.94
50206;BMP280;36098;48.390;10.856;2022-11-13T01:59:19;96986.34;;;21.92
50206;BMP280;36098;48.390;10.856;2022-11-13T02:01:46;96994.22;;;21.92
50206;BMP280;36098;48.390;10.856;2022-11-13T02:04:11;96969.19;;;21.89
50206;BMP280;36098;48.390;10.856;2022-11-13T02:09:08;96964.41;;;21.86
50206;BMP280;36098;48.390;10.856;2022-11-13T02:11:36;96965.22;;;21.87
50206;BMP280;36098;48.390;10.856;2022-11-13T02:14:03;96962.81;;;21.85
50206;BMP280;36098;48.390;10.856;2022-11-13T02:16:31;96959.91;;;21.82
50206;BMP280;36098;48.390;10.856;2022-11-13T02:18:57;96962.28;;;21.83
50206;BMP280;36098;48.390;10.856;2022-11-13T02:21:37;96963.31;;;21.82
50206;BMP280;36098;48.390;10.856;2022-11-13T02:24:26;96953.28;;;21.79
50206;BMP280;36098;48.390;10.856;2022-11-13T02:26:52;96948.00;;;21.79
50206;BMP280;36098;48.390;10.856;2022-11-13T02:29:18;96940.94;;;21.80
50206;BMP280;36098;48.390;10.856;2022-11-13T02:31:43;96942.75;;;21.79
50206;BMP280;36098;48.390;10.856;2022-11-13T02:34:09;96938.75;;;21.77
50206;BMP280;36098;48.390;10.856;2022-11-13T02:36:34;96942.44;;;21.76
50206;BMP280;36098;48.390;10.856;2022-11-13T02:39:03;96938.75;;;21.77
50206;BMP280;36098;48.390;10.856;2022-11-13T02:41:30;96936.41;;;21.75
50206;BMP280;36098;48.390;10.856;2022-11-13T02:43:56;96934.00;;;21.74
50206;BMP280;36098;48.390;10.856;2022-11-13T02:46:21;96929.06;;;21.77
50206;BMP280;36098;48.390;10.856;2022-11-13T02:48:46;96929.28;;;21.76
50206;BMP280;36098;48.390;10.856;2022-11-13T02:51:11;96924.28;;;21.74
50206;BMP280;36098;48.390;10.856;2022-11-13T02:53:38;96919.25;;;21.73
50206;BMP280;36098;48.390;10.856;2022-11-13T02:56:03;96920.06;;;21.73
50206;BMP280;36098;48.390;10.856;2022-11-13T02:58:29;96917.91;;;21.70
50206;BMP280;36098;48.390;10.856;2022-11-13T03:00:54;96919.75;;;21.70
50206;BMP280;36098;48.390;10.856;2022-11-13T03:03:19;96914.47;;;21.70
50206;BMP280;36098;48.390;10.856;2022-11-13T03:05:48;96907.63;;;21.69
50206;BMP280;36098;48.390;10.856;2022-11-13T03:08:14;96906.03;;;21.68
50206;BMP280;36098;48.390;10.856;2022-11-13T03:10:40;96905.50;;;21.66
50206;BMP280;36098;48.390;10.856;2022-11-13T03:13:05;96901.28;;;21.65
50206;BMP280;36098;48.390;10.856;2022-11-13T03:15:30;96898.66;;;21.65
50206;BMP280;36098;48.390;10.856;2022-11-13T03:17:55;96905.72;;;21.64
50206;BMP280;36098;48.390;10.856;2022-11-13T03:20:21;96898.66;;;21.65
50206;BMP280;36098;48.390;10.856;2022-11-13T03:22:46;96896.56;;;21.67
50206;BMP280;36098;48.390;10.856;2022-11-13T03:25:11;96894.97;;;21.66
50206;BMP280;36098;48.390;10.856;2022-11-13T03:27:36;96891.78;;;21.64
50206;BMP280;36098;48.390;10.856;2022-11-13T03:30:02;96893.38;;;21.65
50206;BMP280;36098;48.390;10.856;2022-11-13T03:32:27;96886.75;;;21.62
50206;BMP280;36098;48.390;10.856;2022-11-13T03:34:53;96881.72;;;21.61
50206;BMP280;36098;48.390;10.856;2022-11-13T03:37:18;96885.13;;;21.61
50206;BMP280;36098;48.390;10.856;2022-11-13T03:39:43;96880.13;;;21.60
50206;BMP280;36098;48.390;10.856;2022-11-13T03:42:08;96885.38;;;21.60
50206;BMP280;36098;48.390;10.856;2022-11-13T03:44:34;96881.72;;;21.61
50206;BMP280;36098;48.390;10.856;2022-11-13T03:46:59;96876.47;;;21.61
50206;BMP280;36098;48.390;10.856;2022-11-13T03:49:24;96866.41;;;21.58
50206;BMP280;36098;48.390;10.856;2022-11-13T03:51:49;96868.50;;;21.56
50206;BMP280;36098;48.390;10.856;2022-11-13T03:54:15;96859.03;;;21.55
50206;BMP280;36098;48.390;10.856;2022-11-13T03:56:40;96853.75;;;21.55
50206;BMP280;36098;48.390;10.856;2022-11-13T03:59:05;96858.47;;;21.53
50206;BMP280;36098;48.390;10.856;2022-11-13T04:01:31;96850.59;;;21.53
50206;BMP280;36098;48.390;10.856;2022-11-13T04:03:56;96852.44;;;21.52
50206;BMP280;36098;48.390;10.856;2022-11-13T04:06:21;96853.69;;;21.50
50206;BMP280;36098;48.390;10.856;2022-11-13T04:08:46;96848.44;;;21.50
50206;BMP280;36098;48.390;10.856;2022-11-13T04:11:12;96850.53;;;21.48
50206;BMP280;36098;48.390;10.856;2022-11-13T04:13:37;96840.00;;;21.48
50206;BMP280;36098;48.390;10.856;2022-11-13T04:16:03;96836.81;;;21.46
50206;BMP280;36098;48.390;10.856;2022-11-13T04:18:29;96839.44;;;21.46
50206;BMP280;36098;48.390;10.856;2022-11-13T04:20:59;96830.75;;;21.45
50206;BMP280;36098;48.390;10.856;2022-11-13T04:23:25;96828.63;;;21.42
50206;BMP280;36098;48.390;10.856;2022-11-13T04:25:50;96840.50;;;21.45
50206;BMP280;36098;48.390;10.856;2022-11-13T04:28:15;96832.84;;;21.43
50206;BMP280;36098;48.390;10.856;2022-11-13T04:30:40;96831.03;;;21.44
50206;BMP280;36098;48.390;10.856;2022-11-13T04:33:06;96834.13;;;21.41
50206;BMP280;36098;48.390;10.856;2022-11-13T04:35:31;96828.88;;;21.41
50206;BMP280;36098;48.390;10.856;2022-11-13T04:37:56;96825.13;;;21.37
50206;BMP280;36098;48.390;10.856;2022-11-13T04:40:22;96824.41;;;21.41
50206;BMP280;36098;48.390;10.856;2022-11-13T04:42:47;96823.03;;;21.39
50206;BMP280;36098;48.390;10.856;2022-11-13T04:45:17;96818.03;;;21.38
50206;BMP280;36098;48.390;10.856;2022-11-13T04:47:43;96816.75;;;21.40
50206;BMP280;36098;48.390;10.856;2022-11-13T04:50:08;96822.00;;;21.40
50206;BMP280;36098;48.390;10.856;2022-11-13T04:52:34;96821.44;;;21.38
50206;BMP280;36098;48.390;10.856;2022-11-13T04:54:59;96810.16;;;21.38
50206;BMP280;36098;48.390;10.856;2022-11-13T04:57:24;96804.09;;;21.37
50206;BMP280;36098;48.390;10.856;2022-11-13T04:59:49;96787.78;;;21.35
50206;BMP280;36098;48.390;10.856;2022-11-13T05:02:15;96792.75;;;21.32
50206;BMP280;36098;48.390;10.856;2022-11-13T05:04:40;96791.13;;;21.31
50206;BMP280;36098;48.390;10.856;2022-11-13T05:07:05;96794.00;;;21.29
50206;BMP280;36098;48.390;10.856;2022-11-13T05:09:30;96786.69;;;21.31
50206;BMP280;36098;48.390;10.856;2022-11-13T05:11:56;96791.94;;;21.31
50206;BMP280;36098;48.390;10.856;2022-11-13T05:14:21;96794.06;;;21.34
50206;BMP280;36098;48.390;10.856;2022-11-13T05:16:46;96787.50;;;21.32
50206;BMP280;36098;48.390;10.856;2022-11-13T05:19:14;96790.56;;;21.29
50206;BMP280;36098;48.390;10.856;2022-11-13T05:21:39;96792.41;;;21.28
50206;BMP280;36098;48.390;10.856;2022-11-13T05:24:05;96797.91;;;21.27
50206;BMP280;36098;48.390;10.856;2022-11-13T05:26:30;96795.75;;;21.24
50206;BMP280;36098;48.390;10.856;2022-11-13T05:28:57;96792.91;;;21.25
50206;BMP280;36098;48.390;10.856;2022-11-13T05:31:23;96788.91;;;21.23
50206;BMP280;36098;48.390;10.856;2022-11-13T05:33:48;96795.75;;;21.24
50206;BMP280;36098;48.390;10.856;2022-11-13T05:36:15;96797.34;;;21.25
50206;BMP280;36098;48.390;10.856;2022-11-13T05:38:42;96800.22;;;21.23
50206;BMP280;36098;48.390;10.856;2022-11-13T05:43:38;96791.53;;;21.23
50206;BMP280;36098;48.390;10.856;2022-11-13T05:46:20;96790.44;;;21.19
50206;BMP280;36098;48.390;10.856;2022-11-13T05:48:47;96772.06;;;21.19
50206;BMP280;36098;48.390;10.856;2022-11-13T05:51:17;96772.28;;;21.17
50206;BMP280;36098;48.390;10.856;2022-11-13T05:53:43;96773.88;;;21.18
50206;BMP280;36098;48.390;10.856;2022-11-13T05:56:13;96767.56;;;21.19
50206;BMP280;36098;48.390;10.856;2022-11-13T05:58:39;96760.19;;;21.16
50206;BMP280;36098;48.390;10.856;2022-11-13T06:01:19;96766.72;;;21.14
50206;BMP280;36098;48.390;10.856;2022-11-13T06:03:45;96760.66;;;21.13
50206;BMP280;36098;48.390;10.856;2022-11-13T06:06:15;96759.13;;;21.17
50206;BMP280;36098;48.390;10.856;2022-11-13T06:08:41;96753.09;;;21.17
50206;BMP280;36098;48.390;10.856;2022-11-13T06:11:09;96751.53;;;21.16
50206;BMP280;36098;48.390;10.856;2022-11-13T06:13:35;96741.50;;;21.13
50206;BMP280;36098;48.390;10.856;2022-11-13T06:16:02;96748.03;;;21.10
50206;BMP280;36098;48.390;10.856;2022-11-13T06:18:28;96732.81;;;21.12
50206;BMP280;36098;48.390;10.856;2022-11-13T06:20:53;96733.03;;;21.11
50206;BMP280;36098;48.390;10.856;2022-11-13T06:23:18;96732.25;;;21.10
50206;BMP280;36098;48.390;10.856;2022-11-13T06:25:44;96732.50;;;21.09
50206;BMP280;36098;48.390;10.856;2022-11-13T06:28:10;96733.22;;;21.04
50206;BMP280;36098;48.390;10.856;2022-11-13T06:30:35;96735.59;;;21.06
50206;BMP280;36098;48.390;10.856;2022-11-13T06:33:00;96738.47;;;21.04
50206;BMP280;36098;48.390;10.856;2022-11-13T06:35:26;96742.16;;;21.03
50206;BMP280;36098;48.390;10.856;2022-11-13T06:37:53;96742.38;;;21.02
50206;BMP280;36098;48.390;10.856;2022-11-13T06:40:18;96745.00;;;21.02
50206;BMP280;36098;48.390;10.856;2022-11-13T06:42:43;96737.34;;;21.00
50206;BMP280;36098;48.390;10.856;2022-11-13T06:45:09;96748.34;;;20.97
50206;BMP280;36098;48.390;10.856;2022-11-13T06:47:34;96735.13;;;20.92
50206;BMP280;36098;48.390;10.856;2022-11-13T06:50:00;96729.91;;;20.92
50206;BMP280;36098;48.390;10.856;2022-11-13T06:52:25;96730.22;;;20.96
50206;BMP280;36098;48.390;10.856;2022-11-13T06:54:50;96727.81;;;20.94
50206;BMP280;36098;48.390;10.856;2022-11-13T06:57:15;96726.22;;;20.93
50206;BMP280;36098;48.390;10.856;2022-11-13T06:59:41;96726.72;;;20.90
50206;BMP280;36098;48.390;10.856;2022-11-13T07:02:08;96721.94;;;20.87
50206;BMP280;36098;48.390;10.856;2022-11-13T07:04:35;96719.22;;;20.82
50206;BMP280;36098;48.390;10.856;2022-11-13T07:07:00;96711.66;;;20.86
50206;BMP280;36098;48.390;10.856;2022-11-13T07:09:26;96700.13;;;20.87
50206;BMP280;36098;48.390;10.856;2022-11-13T07:11:51;96701.44;;;20.84
50206;BMP280;36098;48.390;10.856;2022-11-13T07:14:16;96695.38;;;20.84
50206;BMP280;36098;48.390;10.856;2022-11-13T07:16:42;96698.53;;;20.86
50206;BMP280;36098;48.390;10.856;2022-11-13T07:19:07;96698.53;;;20.86
50206;BMP280;36098;48.390;10.856;2022-11-13T07:21:32;96692.97;;;20.82
50206;BMP280;36098;48.390;10.856;2022-11-13T07:23:58;96683.47;;;20.81
50206;BMP280;36098;48.390;10.856;2022-11-13T07:26:23;96682.91;;;20.79
50206;BMP280;36098;48.390;10.856;2022-11-13T07:28:49;96678.47;;;20.80
50206;BMP280;36098;48.390;10.856;2022-11-13T07:31:16;96687.50;;;20.84
50206;BMP280;36098;48.390;10.856;2022-11-13T07:33:42;96678.34;;;20.86
50206;BMP280;36098;48.390;10.856;2022-11-13T07:36:08;96688.59;;;20.88
50206;BMP280;36098;48.390;10.856;2022-11-13T07:38:33;96678.09;;;20.88
50206;BMP280;36098;48.390;10.856;2022-11-13T07:40:59;96680.50;;;20.89
50206;BMP280;36098;48.390;10.856;2022-11-13T07:43:25;96680.16;;;20.86
50206;BMP280;36098;48.390;10.856;2022-11-13T07:45:50;96679.84;;;20.82
50206;BMP280;36098;48.390;10.856;2022-11-13T07:48:21;96677.22;;;20.66
50206;BMP280;36098;48.390;10.856;2022-11-13T07:50:47;96669.28;;;20.44
50206;BMP280;36098;48.390;10.856;2022-11-13T07:53:13;96681.03;;;20.42
50206;BMP280;36098;48.390;10.856;2022-11-13T07:55:38;96686.13;;;20.48
50206;BMP280;36098;48.390;10.856;2022-11-13T07:58:04;96683.56;;;20.53
50206;BMP280;36098;48.390;10.856;2022-11-13T08:00:31;96680.25;;;20.58
50206;BMP280;36098;48.390;10.856;2022-11-13T08:02:58;96678.09;;;20.55
50206;BMP280;36098;48.390;10.856;2022-11-13T08:05:23;96684.06;;;20.50
50206;BMP280;36098;48.390;10.856;2022-11-13T08:07:50;96673.72;;;20.60
50206;BMP280;36098;48.390;10.856;2022-11-13T08:10:16;96683.66;;;20.58
50206;BMP280;36098;48.390;10.856;2022-11-13T08:12:42;96682.00;;;20.52
50206;BMP280;36098;48.390;10.856;2022-11-13T08:15:08;96675.56;;;20.60
50206;BMP280;36098;48.390;10.856;2022-11-13T08:17:33;96676.50;;;20.87
50206;BMP280;36098;48.390;10.856;2022-11-13T08:19:59;96677.16;;;21.15
50206;BMP280;36098;48.390;10.856;2022-11-13T08:22:24;96686.25;;;21.08
50206;BMP280;36098;48.390;10.856;2022-11-13T08:24:49;96689.75;;;21.13
50206;BMP280;36098;48.390;10.856;2022-11-13T08:27:20;96705.84;;;21.00
50206;BMP280;36098;48.390;10.856;2022-11-13T08:29:46;96693.09;;;21.09
50206;BMP280;36098;48.390;10.856;2022-11-13T08:32:15;96693.41;;;21.12
50206;BMP280;36098;48.390;10.856;2022-11-13T08:34:41;96693.91;;;21.09
50206;BMP280;36098;48.390;10.856;2022-11-13T08:37:06;96699.16;;;21.09
50206;BMP280;36098;48.390;10.856;2022-11-13T08:39:31;96692.09;;;20.93
50206;BMP280;36098;48.390;10.856;2022-11-13T08:41:59;96694.56;;;21.00
50206;BMP280;36098;48.390;10.856;2022-11-13T08:44:24;96692.31;;;21.08
50206;BMP280;36098;48.390;10.856;2022-11-13T08:46:50;96706.00;;;21.10
50206;BMP280;36098;48.390;10.856;2022-11-13T08:49:15;96703.16;;;20.95
50206;BMP280;36098;48.390;10.856;2022-11-13T08:51:40;96683.34;;;21.04
50206;BMP280;36098;48.390;10.856;2022-11-13T08:54:05;96679.19;;;21.08
50206;BMP280;36098;48.390;10.856;2022-11-13T08:56:31;96675.59;;;21.14
50206;BMP280;36098;48.390;10.856;2022-11-13T08:58:56;96675.19;;;21.06
50206;BMP280;36098;48.390;10.856;2022-11-13T09:01:21;96670.00;;;21.11
50206;BMP280;36098;48.390;10.856;2022-11-13T09:03:48;96657.84;;;21.21
50206;BMP280;36098;48.390;10.856;2022-11-13T09:06:14;96658.06;;;21.20
50206;BMP280;36098;48.390;10.856;2022-11-13T09:08:40;96640.16;;;21.17
50206;BMP280;36098;48.390;10.856;2022-11-13T09:11:06;96651.06;;;21.25
50206;BMP280;36098;48.390;10.856;2022-11-13T09:13:32;96637.78;;;21.37
50206;BMP280;36098;48.390;10.856;2022-11-13T09:15:59;96629.97;;;21.41
50206;BMP280;36098;48.390;10.856;2022-11-13T09:18:25;96627.56;;;21.40
50206;BMP280;36098;48.390;10.856;2022-11-13T09:20:50;96623.34;;;21.39
50206;BMP280;36098;48.390;10.856;2022-11-13T09:23:16;96621.16;;;21.31
50206;BMP280;36098;48.390;10.856;2022-11-13T09:25:41;96618.84;;;21.13
50206;BMP280;36098;48.390;10.856;2022-11-13T09:28:07;96625.31;;;21.06
50206;BMP280;36098;48.390;10.856;2022-11-13T09:30:36;96608.22;;;21.03
50206;BMP280;36098;48.390;10.856;2022-11-13T09:33:02;96626.66;;;21.08
50206;BMP280;36098;48.390;10.856;2022-11-13T09:35:29;96622.06;;;21.20
50206;BMP280;36098;48.390;10.856;2022-11-13T09:38:04;96633.25;;;21.32
50206;BMP280;36098;48.390;10.856;2022-11-13T09:45:58;96637.59;;;21.22
50206;BMP280;36098;48.390;10.856;2022-11-13T09:50:55;96630.44;;;21.17
50206;BMP280;36098;48.390;10.856;2022-11-13T09:53:21;96623.09;;;21.19
50206;BMP280;36098;48.390;10.856;2022-11-13T09:58:40;96612.69;;;21.24
50206;BMP280;36098;48.390;10.856;2022-11-13T10:01:16;96608.53;;;21.28
50206;BMP280;36098;48.390;10.856;2022-11-13T10:03:51;96601.69;;;21.27
50206;BMP280;36098;48.390;10.856;2022-11-13T10:06:23;96592.03;;;21.33
50206;BMP280;36098;48.390;10.856;2022-11-13T10:09:06;96604.19;;;21.38
50206;BMP280;36098;48.390;10.856;2022-11-13T10:14:19;96591.28;;;21.37
50206;BMP280;36098;48.390;10.856;2022-11-13T10:16:50;96592.25;;;21.31
50206;BMP280;36098;48.390;10.856;2022-11-13T10:19:25;96590.19;;;21.33
50206;BMP280;36098;48.390;10.856;2022-11-13T10:22:17;96584.97;;;21.38
50206;BMP280;36098;48.390;10.856;2022-11-13T10:24:49;96595.50;;;21.38
50206;BMP280;36098;48.390;10.856;2022-11-13T10:27:16;96589.94;;;21.35
50206;BMP280;36098;48.390;10.856;2022-11-13T10:29:42;96579.69;;;21.33
50206;BMP280;36098;48.390;10.856;2022-11-13T10:32:16;96578.22;;;21.42
50206;BMP280;36098;48.390;10.856;2022-11-13T10:34:53;96570.25;;;21.37
50206;BMP280;36098;48.390;10.856;2022-11-13T10:40:27;96539.53;;;21.38
50206;BMP280;36098;48.390;10.856;2022-11-13T10:42:53;96537.22;;;21.41
50206;BMP280;36098;48.390;10.856;2022-11-13T10:45:20;96542.50;;;21.46
50206;BMP280;36098;48.390;10.856;2022-11-13T10:47:50;96526.00;;;21.50
50206;BMP280;36098;48.390;10.856;2022-11-13T10:50:27;96526.78;;;21.51
50206;BMP280;36098;48.390;10.856;2022-11-13T10:52:54;96525.75;;;21.52
50206;BMP280;36098;48.390;10.856;2022-11-13T10:55:39;96521.06;;;21.59
50206;BMP280;36098;48.390;10.856;2022-11-13T10:58:18;96518.72;;;21.57
50206;BMP280;36098;48.390;10.856;2022-11-13T11:00:44;96515.81;;;21.59
50206;BMP280;36098;48.390;10.856;2022-11-13T11:03:14;96508.50;;;21.61
50206;BMP280;36098;48.390;10.856;2022-11-13T11:05:50;96501.19;;;21.63
50206;BMP280;36098;48.390;10.856;2022-11-13T11:08:16;96492.75;;;21.61
50206;BMP280;36098;48.390;10.856;2022-11-13T11:10:52;96477.44;;;21.58
50206;BMP280;36098;48.390;10.856;2022-11-13T11:13:37;96467.44;;;21.55
50206;BMP280;36098;48.390;10.856;2022-11-13T11:16:04;96474.28;;;21.56
50206;BMP280;36098;48.390;10.856;2022-11-13T11:18:41;96470.59;;;21.57
50206;BMP280;36098;48.390;10.856;2022-11-13T11:21:15;96460.38;;;21.60
50206;BMP280;36098;48.390;10.856;2022-11-13T11:26:20;96457.06;;;21.65
50206;BMP280;36098;48.390;10.856;2022-11-13T11:29:00;96445.22;;;21.67
50206;BMP280;36098;48.390;10.856;2022-11-13T11:34:27;96442.34;;;21.69
50206;BMP280;36098;48.390;10.856;2022-11-13T11:36:57;96436.59;;;21.72
50206;BMP280;36098;48.390;10.856;2022-11-13T11:39:49;96432.94;;;21.78
50206;BMP280;36098;48.390;10.856;2022-11-13T11:45:22;96429.84;;;21.81
50206;BMP280;36098;48.390;10.856;2022-11-13T11:47:48;96418.50;;;21.80
50206;BMP280;36098;48.390;10.856;2022-11-13T11:50:16;96425.13;;;21.88
50206;BMP280;36098;48.390;10.856;2022-11-13T11:52:55;96421.47;;;21.89
50206;BMP280;36098;48.390;10.856;2022-11-13T11:55:36;96415.19;;;21.95
50206;BMP280;36098;48.390;10.856;2022-11-13T12:01:01;96400.44;;;21.89
50206;BMP280;36098;48.390;10.856;2022-11-13T12:06:41;96386.25;;;21.95
50206;BMP280;36098;48.390;10.856;2022-11-13T12:09:25;96380.22;;;21.94
50206;BMP280;36098;48.390;10.856;2022-11-13T12:12:08;96376.81;;;21.99
50206;BMP280;36098;48.390;10.856;2022-11-13T12:17:29;96375.91;;;22.25
50206;BMP280;36098;48.390;10.856;2022-11-13T12:22:42;96368.03;;;22.35
50206;BMP280;36098;48.390;10.856;2022-11-13T12:25:22;96352.34;;;22.45
50206;BMP280;36098;48.390;10.856;2022-11-13T12:30:29;96345.75;;;22.47
50206;BMP280;36098;48.390;10.856;2022-11-13T12:33:10;96337.38;;;22.65
50206;BMP280;36098;48.390;10.856;2022-11-13T12:35:37;96337.38;;;22.65
50206;BMP280;36098;48.390;10.856;2022-11-13T12:45:55;96320.81;;;22.60
50206;BMP280;36098;48.390;10.856;2022-11-13T12:48:32;96315.00;;;22.68
50206;BMP280;36098;48.390;10.856;2022-11-13T12:51:06;96323.97;;;22.77
50206;BMP280;36098;48.390;10.856;2022-11-13T12:54:01;96330.28;;;22.71
50206;BMP280;36098;48.390;10.856;2022-11-13T13:13:02;96303.47;;;22.79
50206;BMP280;36098;48.390;10.856;2022-11-13T13:15:34;96306.88;;;22.84
50206;BMP280;36098;48.390;10.856;2022-11-13T13:23:30;96298.72;;;23.01
50206;BMP280;36098;48.390;10.856;2022-11-13T13:26:28;96284.22;;;22.98
50206;BMP280;36098;48.390;10.856;2022-11-13T13:29:18;96297.41;;;22.93
50206;BMP280;36098;48.390;10.856;2022-11-13T13:31:49;96301.91;;;22.98
50206;BMP280;36098;48.390;10.856;2022-11-13T13:36:54;96316.38;;;22.95
50206;BMP280;36098;48.390;10.856;2022-11-13T13:39:53;96313.75;;;22.90
50206;BMP280;36098;48.390;10.856;2022-11-13T13:42:45;96301.63;;;22.89
50206;BMP280;36098;48.390;10.856;2022-11-13T13:47:57;96288.19;;;22.86
50206;BMP280;36098;48.390;10.856;2022-11-13T13:50:33;96288.44;;;22.84
50206;BMP280;36098;48.390;10.856;2022-11-13T13:53:03;96287.66;;;22.89
50206;BMP280;36098;48.390;10.856;2022-11-13T13:55:42;96290.53;;;22.87
50206;BMP280;36098;48.390;10.856;2022-11-13T13:58:14;96292.41;;;22.87
50206;BMP280;36098;48.390;10.856;2022-11-13T14:00:39;96288.19;;;22.91
50206;BMP280;36098;48.390;10.856;2022-11-13T14:03:18;96290.28;;;22.94
50206;BMP280;36098;48.390;10.856;2022-11-13T14:05:43;96300.03;;;22.88
50206;BMP280;36098;48.390;10.856;2022-11-13T14:08:20;96294.25;;;22.91
50206;BMP280;36098;48.390;10.856;2022-11-13T14:10:45;96296.09;;;23.01
50206;BMP280;36098;48.390;10.856;2022-11-13T14:13:21;96303.19;;;23.00
50206;BMP280;36098;48.390;10.856;2022-11-13T14:15:47;96300.84;;;22.99
50206;BMP280;36098;48.390;10.856;2022-11-13T14:18:14;96294.00;;;22.98
50206;BMP280;36098;48.390;10.856;2022-11-13T14:20:52;96279.22;;;22.97
50206;BMP280;36098;48.390;10.856;2022-11-13T14:23:21;96276.34;;;22.98
50206;BMP280;36098;48.390;10.856;2022-11-13T14:25:48;96276.09;;;23.00
50206;BMP280;36098;48.390;10.856;2022-11-13T14:28:16;96263.16;;;22.98
50206;BMP280;36098;48.390;10.856;2022-11-13T14:30:42;96263.97;;;22.99
50206;BMP280;36098;48.390;10.856;2022-11-13T14:33:10;96260.00;;;22.96
50206;BMP280;36098;48.390;10.856;2022-11-13T14:35:38;96259.75;;;22.93
50206;BMP280;36098;48.390;10.856;2022-11-13T14:38:16;96255.00;;;22.95
50206;BMP280;36098;48.390;10.856;2022-11-13T14:40:45;96236.56;;;22.95
50206;BMP280;36098;48.390;10.856;2022-11-13T14:43:22;96236.56;;;22.95
50206;BMP280;36098;48.390;10.856;2022-11-13T14:46:26;96237.63;;;22.99
50206;BMP280;36098;48.390;10.856;2022-11-13T14:48:53;96242.38;;;23.02
50206;BMP280;36098;48.390;10.856;2022-11-13T14:51:27;96252.63;;;22.98
50206;BMP280;36098;48.390;10.856;2022-11-13T14:54:00;96246.31;;;22.99
50206;BMP280;36098;48.390;10.856;2022-11-13T14:59:08;96268.19;;;22.85
50206;BMP280;36098;48.390;10.856;2022-11-13T15:01:34;96262.91;;;22.85
50206;BMP280;36098;48.390;10.856;2022-11-13T15:04:00;96264.75;;;22.84
50206;BMP280;36098;48.390;10.856;2022-11-13T15:06:26;96271.06;;;22.83
50206;BMP280;36098;48.390;10.856;2022-11-13T15:08:57;96258.69;;;22.79
50206;BMP280;36098;48.390;10.856;2022-11-13T15:11:24;96265.53;;;22.95
50206;BMP280;36098;48.390;10.856;2022-11-13T15:13:50;96263.44;;;23.02
50206;BMP280;36098;48.390;10.856;2022-11-13T15:16:21;96268.97;;;23.00
50206;BMP280;36098;48.390;10.856;2022-11-13T15:18:49;96265.00;;;23.03
50206;BMP280;36098;48.390;10.856;2022-11-13T15:21:15;96258.69;;;22.99
50206;BMP280;36098;48.390;10.856;2022-11-13T15:23:41;96257.91;;;22.98
50206;BMP280;36098;48.390;10.856;2022-11-13T15:26:09;96245.78;;;22.97